sensor_id;sensor_type;location;lat;lon;timestamp;temperature;humidity
51922;DHT22;37948;53.260;6.394;2023-02-20T00:01:16;6.10;99.90
51922;DHT22;37948;53.260;6.394;2023-02-20T00:03:43;6.10;99.90
51922;DHT22;37948;53.260;6.394;2023-02-20T00:06:09;6.10;99.90
51922;DHT22;37948;53.260;6.394;2023-02-20T00:08:34;6.10;99.90
51922;DHT22;37948;53.260;6.394;2023-02-20T00:11:01;6.20;99.90
51922;DHT22;37948;53.260;6.394;2023-02-20T00:13:26;6.20;99.90
51922;DHT22;37948;53.260;6.394;2023-02-20T00:15:52;6.30;99.90
51922;DHT22;37948;53.260;6.394;2023-02-20T00:18:18;6.30;99.90
51922;DHT22;37948;53.260;6.394;2023-02-20T00:20:43;6.30;99.90
51922;DHT22;37948;53.260;6.394;2023-02-20T00:23:09;6.30;99.90
51922;DHT22;37948;53.260;6.394;2023-02-20T00:25:35;6.30;99.90
51922;DHT22;37948;53.260;6.394;2023-02-20T00:28:00;6.40;99.90
51922;DHT22;37948;53.260;6.394;2023-02-20T00:30:26;6.40;99.90
51922;DHT22;37948;53.260;6.394;2023-02-20T00:32:53;6.40;99.90
51922;DHT22;37948;53.260;6.394;2023-02-20T00:35:19;6.40;99.90
51922;DHT22;37948;53.260;6.394;2023-02-20T00:37:49;6.40;99.90
51922;DHT22;37948;53.260;6.394;2023-02-20T00:40:16;6.40;99.90
51922;DHT22;37948;53.260;6.394;2023-02-20T00:42:42;6.40;99.90
51922;DHT22;37948;53.260;6.394;2023-02-20T00:45:08;6.40;99.90
51922;DHT22;37948;53.260;6.394;2023-02-20T00:47:34;6.40;99.90
51922;DHT22;37948;53.260;6.394;2023-02-20T00:49:59;6.40;99.90
51922;DHT22;37948;53.260;6.394;2023-02-20T00:52:25;6.50;99.90
51922;DHT22;37948;53.260;6.394;2023-02-20T00:54:51;6.50;99.90
51922;DHT22;37948;53.260;6.394;2023-02-20T00:57:17;6.50;99.90
51922;DHT22;37948;53.260;6.394;2023-02-20T00:59:42;6.50;99.90
51922;DHT22;37948;53.260;6.394;2023-02-20T01:02:08;6.50;99.90
51922;DHT22;37948;53.260;6.394;2023-02-20T01:04:34;6.50;99.90
51922;DHT22;37948;53.260;6.394;2023-02-20T01:06:59;6.50;99.90
51922;DHT22;37948;53.260;6.394;2023-02-20T01:09:25;6.50;99.90
51922;DHT22;37948;53.260;6.394;2023-02-20T01:11:53;6.50;99.90
51922;DHT22;37948;53.260;6.394;2023-02-20T01:14:20;6.50;99.90
51922;DHT22;37948;53.260;6.394;2023-02-20T01:16:48;6.50;99.90
51922;DHT22;37948;53.260;6.394;2023-02-20T01:19:16;6.50;99.90
51922;DHT22;37948;53.260;6.394;2023-02-20T01:21:42;6.50;99.90
51922;DHT22;37948;53.260;6.394;2023-02-20T01:24:07;6.50;99.90
51922;DHT22;37948;53.260;6.394;2023-02-20T01:26:33;6.50;99.90
51922;DHT22;37948;53.260;6.394;2023-02-20T01:29:01;6.50;99.90
51922;DHT22;37948;53.260;6.394;2023-02-20T01:31:27;6.50;99.90
51922;DHT22;37948;53.260;6.394;2023-02-20T01:33:52;6.50;99.90
51922;DHT22;37948;53.260;6.394;2023-02-20T01:36:18;6.60;99.90
51922;DHT22;37948;53.260;6.394;2023-02-20T01:38:45;6.60;99.90
51922;DHT22;37948;53.260;6.394;2023-02-20T01:41:12;6.60;99.90
51922;DHT22;37948;53.260;6.394;2023-02-20T01:43:38;6.60;99.90
51922;DHT22;37948;53.260;6.394;2023-02-20T01:51:26;6.70;99.90
51922;DHT22;37948;53.260;6.394;2023-02-20T01:53:54;6.80;99.90
51922;DHT22;37948;53.260;6.394;2023-02-20T01:56:19;6.80;99.90
51922;DHT22;37948;53.260;6.394;2023-02-20T01:58:48;6.80;99.90
51922;DHT22;37948;53.260;6.394;2023-02-20T02:01:14;6.80;99.90
51922;DHT22;37948;53.260;6.394;2023-02-20T02:03:42;6.80;99.90
51922;DHT22;37948;53.260;6.394;2023-02-20T02:06:12;6.90;99.90
51922;DHT22;37948;53.260;6.394;2023-02-20T02:08:40;6.90;99.90
51922;DHT22;37948;53.260;6.394;2023-02-20T02:11:11;6.90;99.90
51922;DHT22;37948;53.260;6.394;2023-02-20T02:13:38;6.90;99.90
51922;DHT22;37948;53.260;6.394;2023-02-20T02:27:16;7.00;99.90
51922;DHT22;37948;53.260;6.394;2023-02-20T02:30:17;7.00;99.90
51922;DHT22;37948;53.260;6.394;2023-02-20T02:38:29;7.10;99.90
51922;DHT22;37948;53.260;6.394;2023-02-20T02:41:06;7.00;99.90
51922;DHT22;37948;53.260;6.394;2023-02-20T02:46:38;7.10;99.90
51922;DHT22;37948;53.260;6.394;2023-02-20T02:51:38;7.10;99.90
51922;DHT22;37948;53.260;6.394;2023-02-20T02:54:16;7.00;99.90
51922;DHT22;37948;53.260;6.394;2023-02-20T02:56:46;7.00;99.90
51922;DHT22;37948;53.260;6.394;2023-02-20T02:59:22;7.10;99.90
51922;DHT22;37948;53.260;6.394;2023-02-20T03:01:55;7.00;99.90
51922;DHT22;37948;53.260;6.394;2023-02-20T03:04:24;7.10;99.90
51922;DHT22;37948;53.260;6.394;2023-02-20T03:06:56;7.00;99.90
51922;DHT22;37948;53.260;6.394;2023-02-20T03:09:29;7.00;99.90
51922;DHT22;37948;53.260;6.394;2023-02-20T03:11:57;7.10;99.90
51922;DHT22;37948;53.260;6.394;2023-02-20T03:15:18;7.00;99.90
51922;DHT22;37948;53.260;6.394;2023-02-20T03:20:09;7.00;99.90
51922;DHT22;37948;53.260;6.394;2023-02-20T03:25:13;7.10;99.90
51922;DHT22;37948;53.260;6.394;2023-02-20T03:27:59;7.10;99.90
51922;DHT22;37948;53.260;6.394;2023-02-20T03:30:45;7.10;99.90
51922;DHT22;37948;53.260;6.394;2023-02-20T03:33:24;7.10;99.90
51922;DHT22;37948;53.260;6.394;2023-02-20T03:36:15;7.00;99.90
51922;DHT22;37948;53.260;6.394;2023-02-20T03:39:03;7.00;99.90
51922;DHT22;37948;53.260;6.394;2023-02-20T03:41:49;7.00;99.90
51922;DHT22;37948;53.260;6.394;2023-02-20T03:44:34;7.00;99.90
51922;DHT22;37948;53.260;6.394;2023-02-20T03:47:02;7.00;99.90
51922;DHT22;37948;53.260;6.394;2023-02-20T03:49:36;7.00;99.90
51922;DHT22;37948;53.260;6.394;2023-02-20T03:52:03;7.00;99.90
51922;DHT22;37948;53.260;6.394;2023-02-20T03:54:29;7.00;99.90
51922;DHT22;37948;53.260;6.394;2023-02-20T03:57:07;7.00;99.90
51922;DHT22;37948;53.260;6.394;2023-02-20T03:59:39;7.00;99.90
51922;DHT22;37948;53.260;6.394;2023-02-20T04:02:30;6.90;99.90
51922;DHT22;37948;53.260;6.394;2023-02-20T04:05:00;6.90;99.90
51922;DHT22;37948;53.260;6.394;2023-02-20T04:07:35;6.90;99.90
51922;DHT22;37948;53.260;6.394;2023-02-20T04:10:03;6.90;99.90
51922;DHT22;37948;53.260;6.394;2023-02-20T04:12:37;6.90;99.90
51922;DHT22;37948;53.260;6.394;2023-02-20T04:15:06;6.90;99.90
51922;DHT22;37948;53.260;6.394;2023-02-20T04:17:43;6.90;99.90
51922;DHT22;37948;53.260;6.394;2023-02-20T04:20:10;7.00;99.90
51922;DHT22;37948;53.260;6.394;2023-02-20T04:22:39;6.90;99.90
51922;DHT22;37948;53.260;6.394;2023-02-20T04:25:29;6.90;99.90
51922;DHT22;37948;53.260;6.394;2023-02-20T04:28:00;6.90;99.90
51922;DHT22;37948;53.260;6.394;2023-02-20T04:30:26;6.90;99.90
51922;DHT22;37948;53.260;6.394;2023-02-20T04:32:53;6.90;99.90
51922;DHT22;37948;53.260;6.394;2023-02-20T04:35:20;6.90;99.90
51922;DHT22;37948;53.260;6.394;2023-02-20T04:37:45;6.90;99.90
51922;DHT22;37948;53.260;6.394;2023-02-20T04:40:12;6.90;99.90
51922;DHT22;37948;53.260;6.394;2023-02-20T04:42:38;6.90;99.90
51922;DHT22;37948;53.260;6.394;2023-02-20T04:45:04;7.00;99.90
51922;DHT22;37948;53.260;6.394;2023-02-20T04:47:30;7.00;99.90
51922;DHT22;37948;53.260;6.394;2023-02-20T04:49:56;6.90;99.90
51922;DHT22;37948;53.260;6.394;2023-02-20T04:52:22;7.00;99.90
51922;DHT22;37948;53.260;6.394;2023-02-20T04:54:49;7.00;99.90
51922;DHT22;37948;53.260;6.394;2023-02-20T04:57:15;7.00;99.90
51922;DHT22;37948;53.260;6.394;2023-02-20T04:59:41;7.00;99.90
51922;DHT22;37948;53.260;6.394;2023-02-20T05:02:06;7.00;99.90
51922;DHT22;37948;53.260;6.394;2023-02-20T05:04:33;6.90;99.90
51922;DHT22;37948;53.260;6.394;2023-02-20T05:06:59;6.90;99.90
51922;DHT22;37948;53.260;6.394;2023-02-20T05:09:25;6.90;99.90
51922;DHT22;37948;53.260;6.394;2023-02-20T05:11:50;7.00;99.90
51922;DHT22;37948;53.260;6.394;2023-02-20T05:14:17;7.00;99.90
51922;DHT22;37948;53.260;6.394;2023-02-20T05:16:43;7.00;99.90
51922;DHT22;37948;53.260;6.394;2023-02-20T05:19:10;7.00;99.90
51922;DHT22;37948;53.260;6.394;2023-02-20T05:21:36;7.00;99.90
51922;DHT22;37948;53.260;6.394;2023-02-20T05:24:21;7.00;99.90
51922;DHT22;37948;53.260;6.394;2023-02-20T05:26:48;7.00;99.90
51922;DHT22;37948;53.260;6.394;2023-02-20T05:29:14;7.00;99.90
51922;DHT22;37948;53.260;6.394;2023-02-20T05:31:40;7.10;99.90
51922;DHT22;37948;53.260;6.394;2023-02-20T05:34:06;7.10;99.90
51922;DHT22;37948;53.260;6.394;2023-02-20T05:36:32;7.10;99.90
51922;DHT22;37948;53.260;6.394;2023-02-20T05:38:58;7.10;99.90
51922;DHT22;37948;53.260;6.394;2023-02-20T05:41:23;7.10;99.90
51922;DHT22;37948;53.260;6.394;2023-02-20T05:43:49;7.10;99.90
51922;DHT22;37948;53.260;6.394;2023-02-20T05:46:15;7.10;99.90
51922;DHT22;37948;53.260;6.394;2023-02-20T05:48:41;7.20;99.90
51922;DHT22;37948;53.260;6.394;2023-02-20T05:51:06;7.20;99.90
51922;DHT22;37948;53.260;6.394;2023-02-20T05:53:32;7.20;99.90
51922;DHT22;37948;53.260;6.394;2023-02-20T05:55:58;7.20;99.90
51922;DHT22;37948;53.260;6.394;2023-02-20T05:58:24;7.20;99.90
51922;DHT22;37948;53.260;6.394;2023-02-20T06:00:49;7.30;99.90
51922;DHT22;37948;53.260;6.394;2023-02-20T06:03:16;7.20;99.90
51922;DHT22;37948;53.260;6.394;2023-02-20T06:05:42;7.20;99.90
51922;DHT22;37948;53.260;6.394;2023-02-20T06:08:08;7.20;99.90
51922;DHT22;37948;53.260;6.394;2023-02-20T06:10:34;7.30;99.90
51922;DHT22;37948;53.260;6.394;2023-02-20T06:13:00;7.20;99.90
51922;DHT22;37948;53.260;6.394;2023-02-20T06:15:26;7.20;99.90
51922;DHT22;37948;53.260;6.394;2023-02-20T06:17:52;7.20;99.90
51922;DHT22;37948;53.260;6.394;2023-02-20T06:20:18;7.30;99.90
51922;DHT22;37948;53.260;6.394;2023-02-20T06:22:47;7.30;99.90
51922;DHT22;37948;53.260;6.394;2023-02-20T06:25:13;7.30;99.90
51922;DHT22;37948;53.260;6.394;2023-02-20T06:27:38;7.30;99.90
51922;DHT22;37948;53.260;6.394;2023-02-20T06:30:04;7.30;99.90
51922;DHT22;37948;53.260;6.394;2023-02-20T06:32:30;7.30;99.90
51922;DHT22;37948;53.260;6.394;2023-02-20T06:34:55;7.30;99.90
51922;DHT22;37948;53.260;6.394;2023-02-20T06:37:21;7.30;99.90
51922;DHT22;37948;53.260;6.394;2023-02-20T06:39:46;7.30;99.90
51922;DHT22;37948;53.260;6.394;2023-02-20T06:42:14;7.20;99.90
51922;DHT22;37948;53.260;6.394;2023-02-20T06:44:39;7.30;99.90
51922;DHT22;37948;53.260;6.394;2023-02-20T06:47:05;7.30;99.90
51922;DHT22;37948;53.260;6.394;2023-02-20T06:49:36;7.30;99.90
51922;DHT22;37948;53.260;6.394;2023-02-20T06:52:04;7.30;99.90
51922;DHT22;37948;53.260;6.394;2023-02-20T06:54:29;7.30;99.90
51922;DHT22;37948;53.260;6.394;2023-02-20T06:56:55;7.30;99.90
51922;DHT22;37948;53.260;6.394;2023-02-20T06:59:21;7.30;99.90
51922;DHT22;37948;53.260;6.394;2023-02-20T07:01:47;7.30;99.90
51922;DHT22;37948;53.260;6.394;2023-02-20T07:04:16;7.30;99.90
51922;DHT22;37948;53.260;6.394;2023-02-20T07:06:41;7.30;99.90
51922;DHT22;37948;53.260;6.394;2023-02-20T07:09:08;7.30;99.90
51922;DHT22;37948;53.260;6.394;2023-02-20T07:11:33;7.30;99.90
51922;DHT22;37948;53.260;6.394;2023-02-20T07:13:59;7.30;99.90
51922;DHT22;37948;53.260;6.394;2023-02-20T07:16:24;7.40;99.90
51922;DHT22;37948;53.260;6.394;2023-02-20T07:18:50;7.40;99.90
51922;DHT22;37948;53.260;6.394;2023-02-20T07:21:15;7.40;99.90
51922;DHT22;37948;53.260;6.394;2023-02-20T07:23:43;7.40;99.90
51922;DHT22;37948;53.260;6.394;2023-02-20T07:26:24;7.40;99.90
51922;DHT22;37948;53.260;6.394;2023-02-20T07:28:50;7.40;99.90
51922;DHT22;37948;53.260;6.394;2023-02-20T07:31:16;7.40;99.90
51922;DHT22;37948;53.260;6.394;2023-02-20T07:33:42;7.40;99.90
51922;DHT22;37948;53.260;6.394;2023-02-20T07:36:09;7.40;99.90
51922;DHT22;37948;53.260;6.394;2023-02-20T07:38:35;7.40;99.90
51922;DHT22;37948;53.260;6.394;2023-02-20T07:41:00;7.40;99.90
51922;DHT22;37948;53.260;6.394;2023-02-20T07:43:26;7.40;99.90
51922;DHT22;37948;53.260;6.394;2023-02-20T07:45:52;7.40;99.90
51922;DHT22;37948;53.260;6.394;2023-02-20T07:48:17;7.50;99.90
51922;DHT22;37948;53.260;6.394;2023-02-20T07:50:43;7.50;99.90
51922;DHT22;37948;53.260;6.394;2023-02-20T07:53:12;7.50;99.90
51922;DHT22;37948;53.260;6.394;2023-02-20T07:55:38;7.50;99.90
51922;DHT22;37948;53.260;6.394;2023-02-20T07:58:04;7.60;99.90
51922;DHT22;37948;53.260;6.394;2023-02-20T08:00:29;7.60;99.90
51922;DHT22;37948;53.260;6.394;2023-02-20T08:02:55;7.60;99.90
51922;DHT22;37948;53.260;6.394;2023-02-20T08:05:21;7.60;99.90
51922;DHT22;37948;53.260;6.394;2023-02-20T08:07:48;7.70;99.90
51922;DHT22;37948;53.260;6.394;2023-02-20T08:10:15;7.70;99.90
51922;DHT22;37948;53.260;6.394;2023-02-20T08:12:41;7.70;99.90
51922;DHT22;37948;53.260;6.394;2023-02-20T08:15:06;7.70;99.90
51922;DHT22;37948;53.260;6.394;2023-02-20T08:17:34;7.70;99.90
51922;DHT22;37948;53.260;6.394;2023-02-20T08:20:00;7.70;99.90
51922;DHT22;37948;53.260;6.394;2023-02-20T08:22:25;7.70;99.90
51922;DHT22;37948;53.260;6.394;2023-02-20T08:24:51;7.80;99.90
51922;DHT22;37948;53.260;6.394;2023-02-20T08:27:16;7.80;99.90
51922;DHT22;37948;53.260;6.394;2023-02-20T08:29:44;7.90;99.90
51922;DHT22;37948;53.260;6.394;2023-02-20T08:32:10;7.90;99.90
51922;DHT22;37948;53.260;6.394;2023-02-20T08:34:36;7.90;99.90
51922;DHT22;37948;53.260;6.394;2023-02-20T08:37:01;7.90;99.90
51922;DHT22;37948;53.260;6.394;2023-02-20T08:39:27;7.90;99.90
51922;DHT22;37948;53.260;6.394;2023-02-20T08:41:52;7.90;99.90
51922;DHT22;37948;53.260;6.394;2023-02-20T08:44:18;8.00;99.90
51922;DHT22;37948;53.260;6.394;2023-02-20T08:46:48;8.00;99.90
51922;DHT22;37948;53.260;6.394;2023-02-20T08:49:14;8.00;99.90
51922;DHT22;37948;53.260;6.394;2023-02-20T08:51:43;8.00;99.90
51922;DHT22;37948;53.260;6.394;2023-02-20T08:54:08;8.00;99.90
51922;DHT22;37948;53.260;6.394;2023-02-20T08:56:34;8.00;99.90
51922;DHT22;37948;53.260;6.394;2023-02-20T08:59:00;8.10;99.90
51922;DHT22;37948;53.260;6.394;2023-02-20T09:01:25;8.10;99.90
51922;DHT22;37948;53.260;6.394;2023-02-20T09:03:51;8.10;99.90
51922;DHT22;37948;53.260;6.394;2023-02-20T09:06:17;8.10;99.90
51922;DHT22;37948;53.260;6.394;2023-02-20T09:08:42;8.10;99.90
51922;DHT22;37948;53.260;6.394;2023-02-20T09:11:08;8.20;99.90
51922;DHT22;37948;53.260;6.394;2023-02-20T09:13:44;8.20;99.90
51922;DHT22;37948;53.260;6.394;2023-02-20T09:16:11;8.20;99.90
51922;DHT22;37948;53.260;6.394;2023-02-20T09:18:37;8.20;99.90
51922;DHT22;37948;53.260;6.394;2023-02-20T09:21:02;8.20;99.90
51922;DHT22;37948;53.260;6.394;2023-02-20T09:23:28;8.20;99.90
51922;DHT22;37948;53.260;6.394;2023-02-20T09:25:53;8.20;99.90
51922;DHT22;37948;53.260;6.394;2023-02-20T09:28:19;8.20;99.90
51922;DHT22;37948;53.260;6.394;2023-02-20T09:30:45;8.20;99.90
51922;DHT22;37948;53.260;6.394;2023-02-20T09:33:11;8.20;99.90
51922;DHT22;37948;53.260;6.394;2023-02-20T09:35:37;8.20;99.90
51922;DHT22;37948;53.260;6.394;2023-02-20T09:38:03;8.30;99.90
51922;DHT22;37948;53.260;6.394;2023-02-20T09:40:30;8.30;99.90
51922;DHT22;37948;53.260;6.394;2023-02-20T09:43:13;8.30;99.90
51922;DHT22;37948;53.260;6.394;2023-02-20T09:45:46;8.30;99.90
51922;DHT22;37948;53.260;6.394;2023-02-20T09:48:27;8.30;99.90
51922;DHT22;37948;53.260;6.394;2023-02-20T09:51:01;8.30;99.90
51922;DHT22;37948;53.260;6.394;2023-02-20T09:53:34;8.30;99.90
51922;DHT22;37948;53.260;6.394;2023-02-20T09:56:03;8.30;99.90
51922;DHT22;37948;53.260;6.394;2023-02-20T10:01:18;8.40;99.90
51922;DHT22;37948;53.260;6.394;2023-02-20T10:06:16;8.40;99.90
51922;DHT22;37948;53.260;6.394;2023-02-20T10:08:42;8.40;99.90
51922;DHT22;37948;53.260;6.394;2023-02-20T10:11:11;8.40;99.90
51922;DHT22;37948;53.260;6.394;2023-02-20T10:13:54;8.40;99.90
51922;DHT22;37948;53.260;6.394;2023-02-20T10:19:43;8.50;99.90
51922;DHT22;37948;53.260;6.394;2023-02-20T10:27:55;8.50;99.90
51922;DHT22;37948;53.260;6.394;2023-02-20T10:30:32;8.50;99.90
51922;DHT22;37948;53.260;6.394;2023-02-20T10:33:06;8.60;99.90
51922;DHT22;37948;53.260;6.394;2023-02-20T10:35:44;8.60;99.90
51922;DHT22;37948;53.260;6.394;2023-02-20T10:38:15;8.60;99.90
51922;DHT22;37948;53.260;6.394;2023-02-20T10:40:48;8.70;99.90
51922;DHT22;37948;53.260;6.394;2023-02-20T10:43:24;8.70;99.90
51922;DHT22;37948;53.260;6.394;2023-02-20T10:48:37;8.80;99.90
51922;DHT22;37948;53.260;6.394;2023-02-20T10:51:09;8.80;99.90
51922;DHT22;37948;53.260;6.394;2023-02-20T10:56:36;8.90;99.90
51922;DHT22;37948;53.260;6.394;2023-02-20T10:59:12;8.90;99.90
51922;DHT22;37948;53.260;6.394;2023-02-20T11:01:42;9.00;99.90
51922;DHT22;37948;53.260;6.394;2023-02-20T11:04:16;9.00;99.90
51922;DHT22;37948;53.260;6.394;2023-02-20T11:06:49;9.00;99.90
51922;DHT22;37948;53.260;6.394;2023-02-20T11:09:17;9.10;99.90
51922;DHT22;37948;53.260;6.394;2023-02-20T11:11:45;9.10;99.90
51922;DHT22;37948;53.260;6.394;2023-02-20T11:14:15;9.20;99.90
51922;DHT22;37948;53.260;6.394;2023-02-20T11:16:59;9.20;99.90
51922;DHT22;37948;53.260;6.394;2023-02-20T11:22:03;9.30;99.90
51922;DHT22;37948;53.260;6.394;2023-02-20T11:24:35;9.30;99.90
51922;DHT22;37948;53.260;6.394;2023-02-20T11:27:08;9.30;99.90
51922;DHT22;37948;53.260;6.394;2023-02-20T11:30:11;9.30;99.90
51922;DHT22;37948;53.260;6.394;2023-02-20T11:32:41;9.30;99.90
51922;DHT22;37948;53.260;6.394;2023-02-20T11:35:20;9.40;99.90
51922;DHT22;37948;53.260;6.394;2023-02-20T11:37:48;9.40;99.90
51922;DHT22;37948;53.260;6.394;2023-02-20T11:40:20;9.40;99.90
51922;DHT22;37948;53.260;6.394;2023-02-20T11:42:48;9.40;99.90
51922;DHT22;37948;53.260;6.394;2023-02-20T11:45:28;9.40;99.90
51922;DHT22;37948;53.260;6.394;2023-02-20T11:48:08;9.40;99.90
51922;DHT22;37948;53.260;6.394;2023-02-20T11:50:44;9.40;99.90
51922;DHT22;37948;53.260;6.394;2023-02-20T11:55:44;9.40;99.90
51922;DHT22;37948;53.260;6.394;2023-02-20T11:58:23;9.50;99.90
51922;DHT22;37948;53.260;6.394;2023-02-20T12:00:52;9.50;99.90
51922;DHT22;37948;53.260;6.394;2023-02-20T12:03:24;9.50;99.90
51922;DHT22;37948;53.260;6.394;2023-02-20T12:05:50;9.60;99.90
51922;DHT22;37948;53.260;6.394;2023-02-20T12:08:35;9.60;99.90
51922;DHT22;37948;53.260;6.394;2023-02-20T12:11:05;9.60;99.90
51922;DHT22;37948;53.260;6.394;2023-02-20T12:13:46;9.60;99.90
51922;DHT22;37948;53.260;6.394;2023-02-20T12:19:31;9.70;99.90
51922;DHT22;37948;53.260;6.394;2023-02-20T12:35:59;9.70;99.90
51922;DHT22;37948;53.260;6.394;2023-02-20T12:38:51;9.70;99.90
51922;DHT22;37948;53.260;6.394;2023-02-20T12:41:33;9.70;99.90
51922;DHT22;37948;53.260;6.394;2023-02-20T12:57:41;9.90;99.90
51922;DHT22;37948;53.260;6.394;2023-02-20T13:05:29;10.00;99.90
51922;DHT22;37948;53.260;6.394;2023-02-20T13:08:02;10.10;99.90
51922;DHT22;37948;53.260;6.394;2023-02-20T13:10:32;10.10;99.90
51922;DHT22;37948;53.260;6.394;2023-02-20T13:12:58;10.10;99.90
51922;DHT22;37948;53.260;6.394;2023-02-20T13:15:46;10.10;99.90
51922;DHT22;37948;53.260;6.394;2023-02-20T13:21:10;10.20;99.90
51922;DHT22;37948;53.260;6.394;2023-02-20T13:23:38;10.20;99.90
51922;DHT22;37948;53.260;6.394;2023-02-20T13:28:52;10.30;99.90
51922;DHT22;37948;53.260;6.394;2023-02-20T13:31:23;10.30;99.90
51922;DHT22;37948;53.260;6.394;2023-02-20T13:47:26;10.40;99.90
51922;DHT22;37948;53.260;6.394;2023-02-20T14:00:35;10.30;99.90
51922;DHT22;37948;53.260;6.394;2023-02-20T14:03:16;10.30;99.90
51922;DHT22;37948;53.260;6.394;2023-02-20T14:05:42;10.30;99.90
51922;DHT22;37948;53.260;6.394;2023-02-20T14:08:16;10.30;99.90
51922;DHT22;37948;53.260;6.394;2023-02-20T14:10:42;10.30;99.90
51922;DHT22;37948;53.260;6.394;2023-02-20T14:13:17;10.30;99.90
51922;DHT22;37948;53.260;6.394;2023-02-20T14:15:45;10.30;99.90
51922;DHT22;37948;53.260;6.394;2023-02-20T14:18:25;10.20;99.90
51922;DHT22;37948;53.260;6.394;2023-02-20T14:23:36;10.30;99.90
51922;DHT22;37948;53.260;6.394;2023-02-20T14:26:04;10.20;99.90
51922;DHT22;37948;53.260;6.394;2023-02-20T14:28:44;10.30;99.90
51922;DHT22;37948;53.260;6.394;2023-02-20T14:31:23;10.30;99.90
51922;DHT22;37948;53.260;6.394;2023-02-20T14:37:25;10.30;99.90
51922;DHT22;37948;53.260;6.394;2023-02-20T14:40:02;10.30;99.90
51922;DHT22;37948;53.260;6.394;2023-02-20T14:42:31;10.30;99.90
51922;DHT22;37948;53.260;6.394;2023-02-20T14:45:00;10.30;99.90
51922;DHT22;37948;53.260;6.394;2023-02-20T14:47:27;10.30;99.90
51922;DHT22;37948;53.260;6.394;2023-02-20T14:49:53;10.40;99.90
51922;DHT22;37948;53.260;6.394;2023-02-20T14:52:22;10.40;99.90
51922;DHT22;37948;53.260;6.394;2023-02-20T14:55:03;10.40;99.90
51922;DHT22;37948;53.260;6.394;2023-02-20T14:57:29;10.40;99.90
51922;DHT22;37948;53.260;6.394;2023-02-20T15:02:47;10.50;99.90
51922;DHT22;37948;53.260;6.394;2023-02-20T15:05:17;10.40;99.90
51922;DHT22;37948;53.260;6.394;2023-02-20T15:07:45;10.40;99.90
51922;DHT22;37948;53.260;6.394;2023-02-20T15:10:35;10.40;99.90
51922;DHT22;37948;53.260;6.394;2023-02-20T15:13:14;10.40;99.90
51922;DHT22;37948;53.260;6.394;2023-02-20T15:15:42;10.40;99.90
51922;DHT22;37948;53.260;6.394;2023-02-20T15:18:11;10.50;99.90
51922;DHT22;37948;53.260;6.394;2023-02-20T15:20:42;10.50;99.90
51922;DHT22;37948;53.260;6.394;2023-02-20T15:23:22;10.50;99.90
51922;DHT22;37948;53.260;6.394;2023-02-20T15:25:48;10.50;99.90
51922;DHT22;37948;53.260;6.394;2023-02-20T15:33:28;10.50;99.90
51922;DHT22;37948;53.260;6.394;2023-02-20T15:35:54;10.60;99.90
51922;DHT22;37948;53.260;6.394;2023-02-20T15:38:19;10.60;99.90
51922;DHT22;37948;53.260;6.394;2023-02-20T15:40:45;10.60;99.90
51922;DHT22;37948;53.260;6.394;2023-02-20T15:43:11;10.60;99.90
51922;DHT22;37948;53.260;6.394;2023-02-20T15:45:38;10.60;99.90
51922;DHT22;37948;53.260;6.394;2023-02-20T15:48:05;10.60;99.90
51922;DHT22;37948;53.260;6.394;2023-02-20T15:50:32;10.60;99.90
51922;DHT22;37948;53.260;6.394;2023-02-20T15:53:00;10.60;99.90
51922;DHT22;37948;53.260;6.394;2023-02-20T15:55:28;10.60;99.90
51922;DHT22;37948;53.260;6.394;2023-02-20T15:57:57;10.50;99.90
51922;DHT22;37948;53.260;6.394;2023-02-20T16:00:29;10.50;99.90
51922;DHT22;37948;53.260;6.394;2023-02-20T16:02:57;10.40;99.90
51922;DHT22;37948;53.260;6.394;2023-02-20T16:05:23;10.40;99.90
51922;DHT22;37948;53.260;6.394;2023-02-20T16:07:49;10.30;99.90
51922;DHT22;37948;53.260;6.394;2023-02-20T16:10:17;10.30;99.90
51922;DHT22;37948;53.260;6.394;2023-02-20T16:12:44;10.20;99.90
51922;DHT22;37948;53.260;6.394;2023-02-20T16:15:15;10.20;99.90
51922;DHT22;37948;53.260;6.394;2023-02-20T16:17:41;10.10;99.90
51922;DHT22;37948;53.260;6.394;2023-02-20T16:20:25;10.10;99.90
51922;DHT22;37948;53.260;6.394;2023-02-20T16:22:51;10.00;99.90
51922;DHT22;37948;53.260;6.394;2023-02-20T16:25:19;10.00;99.90
51922;DHT22;37948;53.260;6.394;2023-02-20T16:27:45;10.00;99.90
51922;DHT22;37948;53.260;6.394;2023-02-20T16:32:51;9.90;99.90
51922;DHT22;37948;53.260;6.394;2023-02-20T16:35:19;9.90;99.90
51922;DHT22;37948;53.260;6.394;2023-02-20T16:37:44;9.90;99.90
51922;DHT22;37948;53.260;6.394;2023-02-20T16:40:12;9.90;99.90
51922;DHT22;37948;53.260;6.394;2023-02-20T16:42:38;9.80;99.90
51922;DHT22;37948;53.260;6.394;2023-02-20T16:45:15;9.80;99.90
51922;DHT22;37948;53.260;6.394;2023-02-20T16:47:41;9.80;99.90
51922;DHT22;37948;53.260;6.394;2023-02-20T16:50:13;9.80;99.90
51922;DHT22;37948;53.260;6.394;2023-02-20T16:52:40;9.80;99.90
51922;DHT22;37948;53.260;6.394;2023-02-20T16:55:15;9.80;99.90
51922;DHT22;37948;53.260;6.394;2023-02-20T16:57:42;9.80;99.90
51922;DHT22;37948;53.260;6.394;2023-02-20T17:00:08;9.80;99.90
51922;DHT22;37948;53.260;6.394;2023-02-20T17:02:34;9.70;99.90
51922;DHT22;37948;53.260;6.394;2023-02-20T17:05:00;9.70;99.90
51922;DHT22;37948;53.260;6.394;2023-02-20T17:07:26;9.70;99.90
51922;DHT22;37948;53.260;6.394;2023-02-20T17:09:52;9.70;99.90
51922;DHT22;37948;53.260;6.394;2023-02-20T17:12:21;9.60;99.90
51922;DHT22;37948;53.260;6.394;2023-02-20T17:14:47;9.60;99.90
51922;DHT22;37948;53.260;6.394;2023-02-20T17:17:13;9.60;99.90
51922;DHT22;37948;53.260;6.394;2023-02-20T17:19:40;9.60;99.90
51922;DHT22;37948;53.260;6.394;2023-02-20T17:22:08;9.60;99.90
51922;DHT22;37948;53.260;6.394;2023-02-20T17:24:34;9.60;99.90
51922;DHT22;37948;53.260;6.394;2023-02-20T17:27:00;9.60;99.90
51922;DHT22;37948;53.260;6.394;2023-02-20T17:29:26;9.50;99.90
51922;DHT22;37948;53.260;6.394;2023-02-20T17:31:55;9.50;99.90
51922;DHT22;37948;53.260;6.394;2023-02-20T17:34:21;9.50;99.90
51922;DHT22;37948;53.260;6.394;2023-02-20T17:36:46;9.50;99.90
51922;DHT22;37948;53.260;6.394;2023-02-20T17:39:18;9.50;99.90
51922;DHT22;37948;53.260;6.394;2023-02-20T17:41:44;9.50;99.90
51922;DHT22;37948;53.260;6.394;2023-02-20T17:44:11;9.40;99.90
51922;DHT22;37948;53.260;6.394;2023-02-20T17:46:36;9.40;99.90
51922;DHT22;37948;53.260;6.394;2023-02-20T17:49:02;9.40;99.90
51922;DHT22;37948;53.260;6.394;2023-02-20T17:51:27;9.40;99.90
51922;DHT22;37948;53.260;6.394;2023-02-20T17:53:53;9.40;99.90
51922;DHT22;37948;53.260;6.394;2023-02-20T17:56:19;9.40;99.90
51922;DHT22;37948;53.260;6.394;2023-02-20T17:58:44;9.40;99.90
51922;DHT22;37948;53.260;6.394;2023-02-20T18:01:11;9.40;99.90
51922;DHT22;37948;53.260;6.394;2023-02-20T18:03:37;9.40;99.90
51922;DHT22;37948;53.260;6.394;2023-02-20T18:06:02;9.40;99.90
51922;DHT22;37948;53.260;6.394;2023-02-20T18:08:28;9.40;99.90
51922;DHT22;37948;53.260;6.394;2023-02-20T18:10:54;9.40;99.90
51922;DHT22;37948;53.260;6.394;2023-02-20T18:13:20;9.40;99.90
51922;DHT22;37948;53.260;6.394;2023-02-20T18:15:46;9.40;99.90